地図

経路データ

SID SEASON NUMBER BASIN SUBBASIN NAME ISO_TIME NATURE LAT LON WMO_WIND WMO_PRES WMO_AGENCY TRACK_TYPE DIST2LAND LANDFALL IFLAG USA_AGENCY USA_ATCF_ID USA_LAT USA_LON USA_RECORD USA_STATUS USA_WIND USA_PRES USA_SSHS USA_R34_NE USA_R34_SE USA_R34_SW USA_R34_NW USA_R50_NE USA_R50_SE USA_R50_SW USA_R50_NW USA_R64_NE USA_R64_SE USA_R64_SW USA_R64_NW USA_POCI USA_ROCI USA_RMW USA_EYE TOKYO_LAT TOKYO_LON TOKYO_GRADE TOKYO_WIND TOKYO_PRES TOKYO_R50_DIR TOKYO_R50_LONG TOKYO_R50_SHORT TOKYO_R30_DIR TOKYO_R30_LONG TOKYO_R30_SHORT TOKYO_LAND CMA_LAT CMA_LON CMA_CAT CMA_WIND CMA_PRES HKO_LAT HKO_LON HKO_CAT HKO_WIND HKO_PRES NEWDELHI_LAT NEWDELHI_LON NEWDELHI_GRADE NEWDELHI_WIND NEWDELHI_PRES NEWDELHI_CI NEWDELHI_DP NEWDELHI_POCI REUNION_LAT REUNION_LON REUNION_TYPE REUNION_WIND REUNION_PRES REUNION_TNUM REUNION_CI REUNION_RMW REUNION_R34_NE REUNION_R34_SE REUNION_R34_SW REUNION_R34_NW REUNION_R50_NE REUNION_R50_SE REUNION_R50_SW REUNION_R50_NW REUNION_R64_NE REUNION_R64_SE REUNION_R64_SW REUNION_R64_NW BOM_LAT BOM_LON BOM_TYPE BOM_WIND BOM_PRES BOM_TNUM BOM_CI BOM_RMW BOM_R34_NE BOM_R34_SE BOM_R34_SW BOM_R34_NW BOM_R50_NE BOM_R50_SE BOM_R50_SW BOM_R50_NW BOM_R64_NE BOM_R64_SE BOM_R64_SW BOM_R64_NW BOM_ROCI BOM_POCI BOM_EYE BOM_POS_METHOD BOM_PRES_METHOD NADI_LAT NADI_LON NADI_CAT NADI_WIND NADI_PRES WELLINGTON_LAT WELLINGTON_LON WELLINGTON_WIND WELLINGTON_PRES DS824_LAT DS824_LON DS824_STAGE DS824_WIND DS824_PRES TD9636_LAT TD9636_LON TD9636_STAGE TD9636_WIND TD9636_PRES TD9635_LAT TD9635_LON TD9635_WIND TD9635_PRES TD9635_ROCI NEUMANN_LAT NEUMANN_LON NEUMANN_CLASS NEUMANN_WIND NEUMANN_PRES MLC_LAT MLC_LON MLC_CLASS MLC_WIND MLC_PRES USA_GUST BOM_GUST BOM_GUST_PER REUNION_GUST REUNION_GUST_PER USA_SEAHGT USA_SEARAD_NE USA_SEARAD_SE USA_SEARAD_SW USA_SEARAD_NW STORM_SPEED STORM_DIR
1883233N12318 1883 24 NA NA NOT_NAMED 1883-08-20 12:00:00 TS 11.8000 -42.5000 main 1282 1248 _____________O -1 11.8000 -42.5000 TD 30 11 282
1883233N12318 1883 24 NA NA NOT_NAMED 1883-08-20 15:00:00 TS 11.9128 -43.0623 main 1240 1209 _____________P -1 11.9128 -43.0623 TD 30 11 281
1883233N12318 1883 24 NA NA NOT_NAMED 1883-08-20 18:00:00 TS 12.0000 -43.6000 main 1209 1171 _____________O -1 12.0000 -43.6000 TD 30 10 278
1883233N12318 1883 24 NA NA NOT_NAMED 1883-08-20 21:00:00 TS 12.0498 -44.1001 main 1171 1143 _____________P -1 12.0498 -44.1001 TD 30 10 276
1883233N12318 1883 24 NA NA NOT_NAMED 1883-08-21 00:00:00 TS 12.1000 -44.6000 main 1143 1117 _____________O -1 12.1000 -44.6000 TD 30 10 278
1883233N12318 1883 24 NA NA NOT_NAMED 1883-08-21 03:00:00 TS 12.2000 -45.1499 main 1117 1087 _____________P -1 12.2000 -45.1499 TD 30 11 281
1883233N12318 1883 24 NA NA NOT_NAMED 1883-08-21 06:00:00 TS 12.3000 -45.7000 main 1087 1057 _____________O -1 12.3000 -45.7000 TD 30 10 278
1883233N12318 1883 24 NA NA NOT_NAMED 1883-08-21 09:00:00 TS 12.3423 -46.2002 main 1057 1034 _____________P -1 12.3423 -46.2002 TD 32 10 276
1883233N12318 1883 24 NA NA NOT_NAMED 1883-08-21 12:00:00 TS 12.4000 -46.7000 main 1034 1010 _____________O -1 12.4000 -46.7000 TS 35 10 281
1883233N12318 1883 24 NA NA NOT_NAMED 1883-08-21 15:00:00 TS 12.5349 -47.2425 main 1010 991 _____________P -1 12.5349 -47.2425 TS 37 11 286
1883233N12318 1883 24 NA NA NOT_NAMED 1883-08-21 18:00:00 TS 12.7000 -47.8000 main 991 973 _____________O -1 12.7000 -47.8000 TS 40 11 286
1883233N12318 1883 24 NA NA NOT_NAMED 1883-08-21 21:00:00 TS 12.8424 -48.3501 main 968 962 _____________P -1 12.8424 -48.3501 TS 45 11 286
1883233N12318 1883 24 NA NA NOT_NAMED 1883-08-22 00:00:00 TS 13.0000 -48.9000 main 962 953 _____________O -1 13.0000 -48.9000 TS 50 11 288
1883233N12318 1883 24 NA NA NOT_NAMED 1883-08-22 03:00:00 TS 13.1849 -49.4501 main 956 950 _____________P -1 13.1849 -49.4501 TS 55 11 290
1883233N12318 1883 24 NA NA NOT_NAMED 1883-08-22 06:00:00 TS 13.4000 -50.0000 main 957 952 _____________O -1 13.4000 -50.0000 TS 60 12 293
1883233N12318 1883 24 NA NA NOT_NAMED 1883-08-22 09:00:00 TS 13.6499 -50.5500 main 948 948 _____________P -1 13.6499 -50.5500 TS 60 12 295
1883233N12318 1883 24 NA NA NOT_NAMED 1883-08-22 12:00:00 TS 13.9000 -51.1000 main 958 954 _____________O -1 13.9000 -51.1000 TS 60 12 293
1883233N12318 1883 24 NA NA NOT_NAMED 1883-08-22 15:00:00 TS 14.0999 -51.6577 main 958 955 _____________P -1 14.0999 -51.6577 TS 62 11 291
1883233N12318 1883 24 NA NA NOT_NAMED 1883-08-22 18:00:00 TS 14.3000 -52.2000 main 965 963 _____________O -1 14.3000 -52.2000 HU 65 11 294
1883233N12318 1883 24 NA NA NOT_NAMED 1883-08-22 21:00:00 TS 14.5423 -52.7001 main 977 962 _____________P -1 14.5423 -52.7001 HU 65 11 297
1883233N12318 1883 24 NA NA NOT_NAMED 1883-08-23 00:00:00 TS 14.8000 -53.2000 main 962 926 _____________O -1 14.8000 -53.2000 HU 65 11 296
1883233N12318 1883 24 NA NA NOT_NAMED 1883-08-23 03:00:00 TS 15.0425 -53.7501 main 917 890 _____________P -1 15.0425 -53.7501 HU 65 12 295
1883233N12318 1883 24 NA NA NOT_NAMED 1883-08-23 06:00:00 TS 15.3000 -54.3000 main 890 860 _____________O -1 15.3000 -54.3000 HU 65 11 297
1883233N12318 1883 24 NA NA NOT_NAMED 1883-08-23 09:00:00 TS 15.5622 -54.7855 main 867 848 _____________P -1 15.5622 -54.7855 HU 65 11 302
1883233N12318 1883 24 NA NA NOT_NAMED 1883-08-23 12:00:00 TS 15.9000 -55.3000 main 848 835 _____________O -1 15.9000 -55.3000 HU 65 14 306
1883233N12318 1883 24 NA NA NOT_NAMED 1883-08-23 15:00:00 TS 16.3625 -55.9275 main 843 833 _____________P -1 16.3625 -55.9275 HU 65 16 309
1883233N12318 1883 24 NA NA NOT_NAMED 1883-08-23 18:00:00 TS 16.9000 -56.6000 main 841 832 _____________O -1 16.9000 -56.6000 HU 65 17 310
1883233N12318 1883 24 NA NA NOT_NAMED 1883-08-23 21:00:00 TS 17.4501 -57.2874 main 859 798 _____________P -1 17.4501 -57.2874 HU 65 30 332
1883233N12318 1883 24 NA NA NOT_NAMED 1883-08-24 00:00:00 TS 19.5667 -58.1000 70 hurdat_atl main 799 763 O____________O hurdat_atl AL021883 22.7000 -58.5000 HU 70 1 18.0000 -57.9000 HU 65 35 337
1883233N12318 1883 24 NA NA NOT_NAMED 1883-08-24 03:00:00 TS 20.6689 -58.7503 main 757 734 P____________P AL021883 22.8307 -59.1698 HU 70 1 18.5071 -58.3307 HU 65 22 327
1883233N12318 1883 24 NA NA NOT_NAMED 1883-08-24 06:00:00 TS 21.4000 -59.3600 70 hurdat_atl main 729 712 O____________O hurdat_atl AL021883 23.0000 -59.8000 HU 70 1 19.0000 -58.7000 HU 65 17 320
1883233N12318 1883 24 NA NA NOT_NAMED 1883-08-24 09:00:00 TS 21.9972 -59.9576 main 709 695 P____________P AL021883 23.2346 -60.3651 HU 70 1 19.5224 -59.1425 HU 67 14 312
1883233N12318 1883 24 NA NA NOT_NAMED 1883-08-24 12:00:00 TS 22.3333 -60.4667 70 hurdat_atl main 687 670 O____________O hurdat_atl AL021883 23.5000 -60.9000 HU 70 1 20.0000 -59.6000 HU 70 11 303
1883233N12318 1883 24 NA NA NOT_NAMED 1883-08-24 15:00:00 TS 22.6266 -60.9910 main 670 658 P____________P AL021883 23.7575 -61.4650 HU 70 1 20.3648 -60.0430 HU 70 11 301
1883233N12318 1883 24 NA NA NOT_NAMED 1883-08-24 18:00:00 TS 22.9000 -61.5000 70 hurdat_atl main 659 651 O____________O hurdat_atl AL021883 24.0000 -62.0000 HU 70 1 20.7000 -60.5000 HU 70 11 301
1883233N12318 1883 24 NA NA NOT_NAMED 1883-08-24 21:00:00 TS 23.1740 -61.9818 main 654 646 P____________P AL021883 24.2148 -62.4727 HU 70 1 21.0925 -61.0001 HU 70 10 302
1883233N12318 1883 24 NA NA NOT_NAMED 1883-08-25 00:00:00 TS 23.4333 -62.4333 70 hurdat_atl main 650 645 O____________O hurdat_atl AL021883 24.4000 -62.9000 HU 70 1 21.5000 -61.5000 HU 70 9 301
1883233N12318 1883 24 NA NA NOT_NAMED 1883-08-25 03:00:00 TS 23.6640 -62.8628 main 655 651 P____________P AL021883 24.5424 -63.3153 HU 70 1 21.9073 -61.9577 HU 72 9 301
1883233N12318 1883 24 NA NA NOT_NAMED 1883-08-25 06:00:00 TS 23.9000 -63.2667 70 hurdat_atl main 659 659 O____________O hurdat_atl AL021883 24.7000 -63.7000 HU 70 1 22.3000 -62.4000 HU 75 9 305
1883233N12318 1883 24 NA NA NOT_NAMED 1883-08-25 09:00:00 TS 24.1783 -63.6650 main 677 674 P____________P AL021883 24.9349 -64.0575 HU 70 1 22.6651 -62.8800 HU 75 9 309
1883233N12318 1883 24 NA NA NOT_NAMED 1883-08-25 12:00:00 TS 24.4667 -64.0333 70 hurdat_atl main 701 699 O____________O hurdat_atl AL021883 25.2000 -64.4000 HU 70 1 23.0000 -63.3000 HU 75 8 311
1883233N12318 1883 24 NA NA NOT_NAMED 1883-08-25 15:00:00 TS 24.7282 -64.3553 main 715 715 P____________P AL021883 25.4424 -64.7428 HU 70 1 23.2998 -63.5804 HU 75 8 313
1883233N12318 1883 24 NA NA NOT_NAMED 1883-08-25 18:00:00 TS 25.0000 -64.6667 70 hurdat_atl main 743 743 O____________O hurdat_atl AL021883 25.7000 -65.1000 HU 70 1 23.6000 -63.8000 HU 75 8 314
1883233N12318 1883 24 NA NA NOT_NAMED 1883-08-25 21:00:00 TS 25.3142 -65.0266 main 773 773 P____________P AL021883 26.0076 -65.5148 HU 75 1 23.9275 -64.0502 HU 77 9 315
1883233N12318 1883 24 NA NA NOT_NAMED 1883-08-26 00:00:00 TS 25.6333 -65.3667 80 hurdat_atl main 805 805 O____________O hurdat_atl AL021883 26.3000 -65.9000 HU 80 1 24.3000 -64.3000 HU 80 8 318
1883233N12318 1883 24 NA NA NOT_NAMED 1883-08-26 03:00:00 TS 25.9165 -65.6369 main 829 824 P____________P AL021883 26.5073 -66.1803 HU 80 1 24.7350 -64.5501 HU 80 7 322
1883233N12318 1883 24 NA NA NOT_NAMED 1883-08-26 06:00:00 TS 26.2000 -65.8667 80 hurdat_atl main 846 846 O____________O hurdat_atl AL021883 26.7000 -66.4000 HU 80 1 25.2000 -64.8000 HU 80 7 326
1883233N12318 1883 24 NA NA NOT_NAMED 1883-08-26 09:00:00 TS 26.5241 -66.0933 main 868 868 P____________P AL021883 26.9425 -66.6150 HU 80 1 25.6875 -65.0499 HU 82 7 329
1883233N12318 1883 24 NA NA NOT_NAMED 1883-08-26 12:00:00 TS 26.8333 -66.3000 80 hurdat_atl main 888 888 O____________O hurdat_atl AL021883 27.2000 -66.8000 HU 80 1 26.1000 -65.3000 HU 85 7 328
1883233N12318 1883 24 NA NA NOT_NAMED 1883-08-26 15:00:00 TS 27.0766 -66.4836 main 911 911 P____________P AL021883 27.4424 -66.9502 HU 80 1 26.3449 -65.5503 HU 85 6 325
1883233N12318 1883 24 NA NA NOT_NAMED 1883-08-26 18:00:00 TS 27.3000 -66.6667 80 hurdat_atl main 923 923 O____________O hurdat_atl AL021883 27.7000 -67.1000 HU 80 1 26.5000 -65.8000 HU 85 6 322
1883233N12318 1883 24 NA NA NOT_NAMED 1883-08-26 21:00:00 TS 27.5425 -66.8859 main 936 936 P____________P AL021883 27.9925 -67.2999 HU 85 2 26.6425 -66.0577 HU 87 6 322
1883233N12318 1883 24 NA NA NOT_NAMED 1883-08-27 00:00:00 TS 27.8000 -67.1000 90 hurdat_atl main 948 948 O____________O hurdat_atl AL021883 28.3000 -67.5000 HU 90 2 26.8000 -66.3000 HU 90 6 327
1883233N12318 1883 24 NA NA NOT_NAMED 1883-08-27 03:00:00 TS 28.0808 -67.2842 main 961 961 P____________P AL021883 28.6075 -67.6651 HU 90 2 27.0275 -66.5225 HU 90 6 333
1883233N12318 1883 24 NA NA NOT_NAMED 1883-08-27 06:00:00 TS 28.3667 -67.4333 90 hurdat_atl main 982 976 O____________O hurdat_atl AL021883 28.9000 -67.8000 HU 90 2 27.3000 -66.7000 HU 90 6 337
1883233N12318 1883 24 NA NA NOT_NAMED 1883-08-27 09:00:00 TS 28.6183 -67.5386 main 995 995 P____________P AL021883 29.1275 -67.9003 HU 90 2 27.6000 -66.8151 HU 92 6 342
1883233N12318 1883 24 NA NA NOT_NAMED 1883-08-27 12:00:00 TS 28.9000 -67.6333 90 hurdat_atl main 1017 1017 O____________O hurdat_atl AL021883 29.4000 -68.0000 HU 90 2 27.9000 -66.9000 HU 95 7 343
1883233N12318 1883 24 NA NA NOT_NAMED 1883-08-27 15:00:00 TS 29.2684 -67.7691 main 1013 984 P____________P AL021883 29.8275 -68.1498 HU 90 2 28.1500 -67.0075 HU 95 8 343
1883233N12318 1883 24 NA NA NOT_NAMED 1883-08-27 18:00:00 TS 29.6667 -67.9000 90 hurdat_atl main 977 949 O____________O hurdat_atl AL021883 30.3000 -68.3000 HU 90 2 28.4000 -67.1000 HU 95 8 346
1883233N12318 1883 24 NA NA NOT_NAMED 1883-08-27 21:00:00 TS 30.0383 -67.9959 main 949 913 P____________P AL021883 30.7075 -68.4151 HU 95 2 28.7000 -67.1576 HU 97 8 349
1883233N12318 1883 24 NA NA NOT_NAMED 1883-08-28 00:00:00 TS 30.4000 -68.0667 100 hurdat_atl main 913 891 O____________O hurdat_atl AL021883 31.1000 -68.5000 HU 100 3 29.0000 -67.2000 MH 100 7 351
1883233N12318 1883 24 NA NA NOT_NAMED 1883-08-28 03:00:00 TS 30.7375 -68.1242 main 891 854 P____________P AL021883 31.4775 -68.5650 HU 100 3 29.2575 -67.2426 MH 102 7 353
1883233N12318 1883 24 NA NA NOT_NAMED 1883-08-28 06:00:00 TS 31.1000 -68.1667 100 hurdat_atl main 854 826 O____________O hurdat_atl AL021883 31.9000 -68.6000 HU 100 3 29.5000 -67.3000 MH 105 8 356
1883233N12318 1883 24 NA NA NOT_NAMED 1883-08-28 09:00:00 TS 31.5225 -68.1903 main 826 794 P____________P AL021883 32.4350 -68.5929 HU 105 3 29.6975 -67.3853 MH 107 9 357
1883233N12318 1883 24 NA NA NOT_NAMED 1883-08-28 12:00:00 TS 32.0000 -68.2333 110 hurdat_atl main 794 748 O____________O hurdat_atl AL021883 33.0000 -68.6000 HU 110 3 30.0000 -67.5000 MH 110 10 351
1883233N12318 1883 24 NA NA NOT_NAMED 1883-08-28 15:00:00 TS 32.4884 -68.3643 main 748 712 P____________P AL021883 33.4550 -68.7216 HU 110 3 30.5550 -67.6497 MH 110 11 349
1883233N12318 1883 24 NA NA NOT_NAMED 1883-08-28 18:00:00 TS 33.0667 -68.4667 110 hurdat_atl main 707 679 O____________O hurdat_atl AL021883 34.0000 -68.8000 HU 110 3 31.2000 -67.8000 MH 110 13 356
1883233N12318 1883 24 NA NA NOT_NAMED 1883-08-28 21:00:00 TS 33.7715 -68.4669 main 675 660 P____________P AL021883 34.7972 -68.7391 HU 110 3 31.7200 -67.9225 MH 110 15 4
1883233N12318 1883 24 NA NA NOT_NAMED 1883-08-29 00:00:00 TS 34.5667 -68.3333 110 hurdat_atl main 666 661 O____________O hurdat_atl AL021883 35.7000 -68.5000 HU 110 3 32.3000 -68.0000 MH 110 948 17 12
1883233N12318 1883 24 NA NA NOT_NAMED 1883-08-29 03:00:00 TS 35.4026 -68.0554 main 668 643 P____________P AL021883 36.5726 -68.0681 HU 105 3 33.0625 -68.0299 MH 107 950 18 18
1883233N12318 1883 24 NA NA NOT_NAMED 1883-08-29 06:00:00 TS 36.2333 -67.6667 100 hurdat_atl main 643 578 O____________I hurdat_atl AL021883 37.4000 -67.5000 HU 100 3 33.9000 -68.0000 MH 105 953 16 21
1883233N12318 1883 24 NA NA NOT_NAMED 1883-08-29 09:00:00 TS 36.9427 -67.3385 main 582 522 P____________P AL021883 38.0983 -66.9929 HU 95 2 34.6315 -68.0299 MH 102 955 16 25
1883233N12318 1883 24 NA NA NOT_NAMED 1883-08-29 12:00:00 TS 37.7000 -66.8000 90 hurdat_atl main 522 483 O____________O hurdat_atl AL021883 38.8000 -66.3000 HU 90 2 35.5000 -67.8000 MH 100 958 21 34
1883233N12318 1883 24 NA NA NOT_NAMED 1883-08-29 15:00:00 TS 38.6689 -65.8478 main 487 435 P____________P AL021883 39.6430 -65.2485 HU 90 2 36.7208 -67.0464 MH 100 26 40
1883233N12318 1883 24 NA NA NOT_NAMED 1883-08-29 18:00:00 TS 39.6667 -64.6667 90 hurdat_atl main 425 361 O____________O hurdat_atl AL021883 40.5000 -64.0000 HU 90 2 38.0000 -66.0000 MH 100 26 44
1883233N12318 1883 24 NA NA NOT_NAMED 1883-08-29 21:00:00 TS 40.5191 -63.5023 main 365 338 P____________P AL021883 41.2639 -62.7691 HU 85 2 39.0296 -64.9687 MH 97 25 47
1883233N12318 1883 24 NA NA NOT_NAMED 1883-08-30 00:00:00 TS 41.3333 -62.3000 80 hurdat_atl main 344 313 O____________O hurdat_atl AL021883 42.0000 -61.5000 HU 80 1 40.0000 -63.9000 HU 95 24 47
1883233N12318 1883 24 NA NA NOT_NAMED 1883-08-30 03:00:00 TS 42.1813 -61.1665 main 306 262 P____________P AL021883 42.7485 -60.2118 HU 80 1 41.0469 -63.0759 HU 92 25 47
1883233N12318 1883 24 NA NA NOT_NAMED 1883-08-30 06:00:00 TS 43.0333 -59.8667 80 hurdat_atl main 262 245 O____________O hurdat_atl AL021883 43.5000 -58.9000 HU 80 1 42.1000 -61.8000 HU 90 968 27 52
1883233N12318 1883 24 NA NA NOT_NAMED 1883-08-30 09:00:00 TS 43.8684 -58.2498 main 256 250 P____________P AL021883 44.2411 -57.7194 HU 75 1 43.1230 -59.3105 HU 85 30 58
1883233N12318 1883 24 NA NA NOT_NAMED 1883-08-30 12:00:00 TS 44.6667 -56.3000 70 983 hurdat_atl main 237 151 O____________O hurdat_atl AL021883 45.0000 -56.2000 HU 70 983 1 44.0000 -56.5000 HU 80 34 63
1883233N12318 1883 24 NA NA NOT_NAMED 1883-08-30 15:00:00 TS 45.3859 -54.0264 main 136 96 P____________P AL021883 45.7404 -53.8553 HU 70 1 44.6770 -54.3685 HU 75 36 67
1883233N12318 1883 24 NA NA NOT_NAMED 1883-08-30 18:00:00 TS 46.1000 -51.6000 70 hurdat_atl main 132 132 O____________O hurdat_atl AL021883 46.5000 -51.2000 HU 70 1 45.3000 -52.4000 HU 70 36 65
1883233N12318 1883 24 NA NA NOT_NAMED 1883-08-30 21:00:00 TS 46.8732 -49.3266 main 257 257 P____________P AL021883 47.3249 -48.8424 HU 70 1 45.9698 -50.2950 HU 67 36 63
1883233N12318 1883 24 NA NA NOT_NAMED 1883-08-31 00:00:00 MX 47.7000 -46.9333 70 hurdat_atl main 425 425 O____________O hurdat_atl AL021883 48.2000 -46.4000 EX 70 -4 46.7000 -48.0000 HU 65 38 64
1883233N12318 1883 24 NA NA NOT_NAMED 1883-08-31 03:00:00 MX 48.5647 -44.2142 main 633 633 P____________P AL021883 49.0927 -43.6187 EX 70 -4 47.5086 -45.4053 HU 62 41 66
1883233N12318 1883 24 NA NA NOT_NAMED 1883-08-31 06:00:00 ET 49.3667 -41.3000 70 hurdat_atl main 850 850 O____________O hurdat_atl AL021883 49.9000 -40.7000 EX 70 -4 48.3000 -42.5000 EX 60 41 69
1883233N12318 1883 24 NA NA NOT_NAMED 1883-08-31 09:00:00 ET 50.0382 -38.2508 main 1070 1070 P____________P AL021883 50.5477 -37.7286 EX 70 -4 49.0193 -39.2954 EX 57 40 74
1883233N12318 1883 24 NA NA NOT_NAMED 1883-08-31 12:00:00 ET 50.5000 -35.3333 70 hurdat_atl main 1169 1169 O____________O hurdat_atl AL021883 51.0000 -35.0000 EX 70 -4 49.5000 -36.0000 EX 55 985 35 79
1883233N12318 1883 24 NA NA NOT_NAMED 1883-08-31 15:00:00 ET 50.6868 -32.9059 main 1219 1219 P____________P AL021883 51.2390 -32.8630 EX 70 -4 49.5825 -32.9917 EX 55 30 85
1883233N12318 1883 24 NA NA NOT_NAMED 1883-08-31 18:00:00 ET 50.7667 -30.6000 70 hurdat_atl main 1290 1216 O____________O hurdat_atl AL021883 51.4000 -30.9000 EX 70 -4 49.5000 -30.0000 EX 55 31 86
1883233N12318 1883 24 NA NA NOT_NAMED 1883-08-31 21:00:00 ET 50.9003 -27.9794 main 1209 1030 P____________P AL021883 51.6190 -28.6189 EX 70 -4 49.4631 -26.7004 EX 60 34 86
1883233N12318 1883 24 NA NA NOT_NAMED 1883-09-01 00:00:00 ET 51.0000 -25.2667 70 hurdat_atl main 1023 847 O____________O hurdat_atl AL021883 51.8000 -26.2000 EX 70 -4 49.4000 -23.4000 EX 65 34 88
1883233N12318 1883 24 NA NA NOT_NAMED 1883-09-01 03:00:00 ET 51.0014 -22.5133 main 833 671 P____________P AL021883 51.8730 -23.6441 EX 70 -4 49.2584 -20.2517 EX 70 33 90
1883233N12318 1883 24 NA NA NOT_NAMED 1883-09-01 06:00:00 ET 51.0000 -19.9333 70 hurdat_atl main 657 513 O____________O hurdat_atl AL021883 51.9000 -21.2000 EX 70 -4 49.2000 -17.4000 EX 75 30 88
1883233N12318 1883 24 NA NA NOT_NAMED 1883-09-01 09:00:00 ET 51.0857 -17.6453 main 500 377 P____________P AL021883 51.9524 -19.0736 EX 75 -4 49.3524 -14.7887 EX 77 27 86
1883233N12318 1883 24 NA NA NOT_NAMED 1883-09-01 12:00:00 ET 51.2000 -15.7000 80 hurdat_atl main 370 267 O____________O hurdat_atl AL021883 52.0000 -17.2000 EX 80 -4 49.6000 -12.7000 EX 80 955 22 85
1883233N12318 1883 24 NA NA NOT_NAMED 1883-09-01 15:00:00 ET 51.2636 -14.0961 main 260 174 P____________P AL021883 52.0031 -15.4893 EX 80 -4 49.7844 -11.3098 EX 75 19 86
1883233N12318 1883 24 NA NA NOT_NAMED 1883-09-01 18:00:00 ET 51.3333 -12.7000 80 hurdat_atl main 167 81 O____________O hurdat_atl AL021883 52.0000 -13.9000 EX 80 -4 50.0000 -10.3000 EX 70 18 85
1883233N12318 1883 24 NA NA NOT_NAMED 1883-09-01 21:00:00 ET 51.4139 -11.2715 main 76 0 P____________P AL021883 51.9966 -12.3149 EX 80 -4 50.2485 -9.18471 EX 65 18 85
1883233N12318 1883 24 NA NA NOT_NAMED 1883-09-02 00:00:00 ET 51.5000 -9.83333 80 hurdat_atl main 0 0 O____________O hurdat_atl AL021883 52.0000 -10.7000 EX 80 -4 50.5000 -8.10000 EX 60 18 86
1883233N12318 1883 24 NA NA NOT_NAMED 1883-09-02 03:00:00 ET 51.5547 -8.32596 main 11 11 P____________P AL021883 51.9977 -8.98734 EX 80 -4 50.6688 -7.00319 EX 57 19 86
1883233N12318 1883 24 NA NA NOT_NAMED 1883-09-02 06:00:00 ET 51.6333 -6.76667 80 963 hurdat_atl main 55 6 O____________O hurdat_atl AL021883 52.0000 -7.20000 EX 80 963 -4 50.9000 -5.90000 EX 55 962 20 84
1883233N12318 1883 24 NA NA NOT_NAMED 1883-09-02 09:00:00 ET 51.7724 -5.14555 main 0 0 P____________P AL021883 52.0066 -5.33592 EX 80 -4 51.3039 -4.76481 EX 55 964 20 82
1883233N12318 1883 24 NA NA NOT_NAMED 1883-09-02 12:00:00 ET 51.9200 -3.54000 80 hurdat_atl main 0 0 O____________O hurdat_atl AL021883 52.0000 -3.50000 EX 80 -4 51.8000 -3.60000 EX 55 966 19 80
1883233N12318 1883 24 NA NA NOT_NAMED 1883-09-02 15:00:00 ET 52.1139 -2.02826 main 0 0 P____________P AL021883 51.9631 -1.80378 EX 80 -4 52.2647 -2.25274 EX 55 968 17 71
1883233N12318 1883 24 NA NA NOT_NAMED 1883-09-02 18:00:00 ET 52.5000 -0.866667 80 hurdat_atl main 0 0 O____________O hurdat_atl AL021883 51.9000 -0.200000 EX 80 -4 52.8000 -1.20000 EX 55 970 15 27
1883233N12318 1883 24 NA NA NOT_NAMED 1883-09-02 21:00:00 ET 53.4678 -0.893399 main 0 0 _____________P AL021883 EX -4 53.4678 -0.893399 EX 55 17 0
1883233N12318 1883 24 NA NA NOT_NAMED 1883-09-03 00:00:00 ET 54.2000 -0.900000 main 0 0 _____________O -1 54.2000 -0.900000 EX 55 14 4
1883233N12318 1883 24 NA NA NOT_NAMED 1883-09-03 03:00:00 ET 54.9000 -0.714296 main 38 38 _____________P -1 54.9000 -0.714296 EX 55 14 9
1883233N12318 1883 24 NA NA NOT_NAMED 1883-09-03 06:00:00 ET 55.6000 -0.500000 main 68 68 _____________O -1 55.6000 -0.500000 EX 55 14 10
1883233N12318 1883 24 NA NA NOT_NAMED 1883-09-03 09:00:00 ET 56.3001 -0.259481 main 111 111 _____________P -1 56.3001 -0.259481 EX 52 14 11
1883233N12318 1883 24 NA NA NOT_NAMED 1883-09-03 12:00:00 ET 57.0000 -7.74149e-12 main 121 _____________O -1 57.0000 -0.00000 EX 50 979 14 12

IBTrACS Databaseについて

本データベースは、米国NOAAが公開する1842年以降の世界の熱帯低気圧のベストトラックデータアーカイブInternational Best Track Archive for Climate Stewardship (IBTrACS)を、ウェブで閲覧しやすい形式に変換したものです。

最終更新日:2021-12-01